Time;durP1;ratioP1;P1;durP2;ratioP2;P2;SDS_P1;SDS_P2;PMS_P1;PMS_P2;Temp;Humidity;BMP_temperature;BMP_pressure;BME280_temperature;BME280_humidity;BME280_pressure;Samples;Min_cycle;Max_cycle;Signal;HPM_P1;HPM_P2
2020/12/28 00:01:53;;;;;;;34.43;21.05;;;;;;;0.73;78.25;95787.27;1719922;83;21145;-84
2020/12/28 00:05:11;;;;;;;30.15;19.90;;;;;;;0.76;78.63;95793.04;1718423;83;21204;-86
2020/12/28 00:07:59;;;;;;;28.55;17.60;;;;;;;0.77;78.60;95776.58;1717905;83;21077;-85
2020/12/28 00:10:30;;;;;;;29.67;17.90;;;;;;;0.76;78.38;95771.02;1717910;83;21082;-85
2020/12/28 00:13:01;;;;;;;28.77;19.23;;;;;;;0.70;78.42;95762.38;1717956;83;21094;-84
2020/12/28 00:15:31;;;;;;;30.32;18.25;;;;;;;0.69;78.72;95744.36;1720045;83;21070;-81
2020/12/28 00:18:42;;;;;;;24.55;16.70;;;;;;;0.72;78.74;95741.09;1717610;83;21077;-83
2020/12/28 00:21:38;;;;;;;26.42;18.10;;;;;;;0.79;78.94;95742.78;1699198;83;21117;-84
2020/12/28 00:24:07;;;;;;;33.70;19.87;;;;;;;0.87;78.83;95750.82;1718248;83;21142;-83
2020/12/28 00:26:39;;;;;;;28.87;17.73;;;;;;;0.87;78.61;95740.92;1719465;83;21160;-82
2020/12/28 00:29:16;;;;;;;29.12;18.80;;;;;;;0.89;78.62;95745.52;1718131;83;21082;-85
2020/12/28 00:31:45;;;;;;;30.52;19.10;;;;;;;0.95;78.64;95750.25;1718004;83;21416;-84
2020/12/28 00:34:15;;;;;;;28.17;18.65;;;;;;;0.98;78.52;95738.39;1709777;82;21177;-84
2020/12/28 00:36:52;;;;;;;28.92;17.87;;;;;;;0.99;78.54;95758.18;1709950;84;21138;-85
2020/12/28 00:39:45;;;;;;;29.35;19.55;;;;;;;1.00;78.53;95758.53;1711403;83;21165;-82
2020/12/28 00:42:20;;;;;;;29.05;18.62;;;;;;;0.99;78.52;95743.92;1709857;84;21665;-84
2020/12/28 00:44:49;;;;;;;26.60;16.85;;;;;;;1.02;78.55;95732.05;1709220;84;22119;-86
2020/12/28 00:47:19;;;;;;;23.70;15.40;;;;;;;1.06;78.46;95736.05;1709877;84;21122;-85
2020/12/28 00:50:31;;;;;;;23.90;15.13;;;;;;;1.05;78.51;95720.97;1710460;84;21113;-83
2020/12/28 00:53:12;;;;;;;27.10;17.40;;;;;;;1.02;78.75;95725.57;1712077;81;21048;-84
2020/12/28 00:56:24;;;;;;;25.43;16.20;;;;;;;0.99;79.26;95709.75;1711504;84;21070;-83
2020/12/28 00:59:20;;;;;;;24.92;16.42;;;;;;;1.01;79.15;95710.96;1709911;84;21286;-84
2020/12/28 01:01:56;;;;;;;24.92;16.00;;;;;;;1.04;79.09;95701.65;1709199;84;21167;-84
2020/12/28 01:04:27;;;;;;;26.90;17.60;;;;;;;1.05;79.11;95698.94;1710283;84;21102;-82
2020/12/28 01:07:13;;;;;;;24.55;16.10;;;;;;;1.05;79.22;95684.67;1711060;84;21074;-83
2020/12/28 01:09:51;;;;;;;24.65;16.07;;;;;;;1.08;79.33;95675.04;1683093;84;21527;-84
2020/12/28 01:12:21;;;;;;;24.63;15.68;;;;;;;1.13;79.32;95672.47;1709829;84;21162;-83
2020/12/28 01:15:21;;;;;;;25.45;15.38;;;;;;;1.19;79.06;95673.78;1715637;81;21191;-83
2020/12/28 01:18:11;;;;;;;22.25;13.28;;;;;;;1.23;78.88;95666.11;1753173;81;21157;-84
2020/12/28 01:20:47;;;;;;;24.57;14.90;;;;;;;1.31;79.00;95654.70;1756689;81;21097;-85
2020/12/28 01:23:20;;;;;;;21.15;14.20;;;;;;;1.37;78.94;95646.94;1757758;81;21062;-85
2020/12/28 01:26:17;;;;;;;19.27;11.38;;;;;;;1.42;78.83;95628.77;1759240;81;21085;-83
2020/12/28 01:29:26;;;;;;;20.88;13.80;;;;;;;1.45;78.64;95624.66;1757912;81;21145;-85
2020/12/28 01:31:56;;;;;;;21.20;13.38;;;;;;;1.44;78.70;95628.67;1757577;81;21153;-84
2020/12/28 01:35:01;;;;;;;21.40;13.58;;;;;;;1.42;78.68;95613.20;1737271;81;21121;-84
2020/12/28 01:37:52;;;;;;;23.77;14.30;;;;;;;1.41;78.83;95626.29;1755321;81;21176;-82
2020/12/28 01:40:25;;;;;;;19.75;13.32;;;;;;;1.44;78.77;95619.11;1758327;78;21344;-83
2020/12/28 01:43:18;;;;;;;19.90;13.43;;;;;;;1.44;78.79;95607.91;1736459;78;21096;-83
2020/12/28 01:46:00;;;;;;;19.60;12.95;;;;;;;1.46;78.86;95599.06;1721210;83;21070;-85
2020/12/28 01:48:33;;;;;;;20.70;13.22;;;;;;;1.49;78.88;95600.61;1720826;83;21128;-83
2020/12/28 01:51:05;;;;;;;19.30;12.98;;;;;;;1.46;79.06;95594.34;1722028;83;21101;-83
2020/12/28 01:54:13;;;;;;;19.62;12.35;;;;;;;1.40;79.04;95582.67;1717559;83;21199;-84
2020/12/28 01:56:50;;;;;;;19.48;12.28;;;;;;;1.35;79.28;95597.75;1721907;83;21073;-84
2020/12/28 02:00:05;;;;;;;;;;;;;;;1.32;79.63;95593.64;1726779;79;21034;-82
2020/12/28 02:03:17;;;;;;;17.85;12.80;;;;;;;1.27;79.98;95593.63;1743507;82;20533;-82
2020/12/28 02:05:50;;;;;;;17.67;11.68;;;;;;;1.21;80.39;95588.91;1741170;82;21129;-84
2020/12/28 02:08:19;;;;;;;34.70;13.90;;;;;;;1.20;80.73;95579.02;1742174;82;22081;-84
2020/12/28 02:10:55;;;;;;;18.23;11.38;;;;;;;1.23;80.93;95568.87;1742903;82;21225;-84
2020/12/28 02:14:04;;;;;;;17.80;10.55;;;;;;;1.27;81.20;95559.92;1743966;82;21153;-83
2020/12/28 02:16:35;;;;;;;16.93;10.28;;;;;;;1.33;81.21;95565.94;1728869;82;21193;-84
2020/12/28 02:19:13;;;;;;;15.83;9.73;;;;;;;1.39;81.04;95564.16;1742574;81;21161;-84
2020/12/28 02:21:43;;;;;;;16.65;10.93;;;;;;;1.44;80.91;95563.81;1742543;82;21866;-83
2020/12/28 02:24:16;;;;;;;16.30;10.80;;;;;;;1.46;80.71;95560.62;1743009;82;21141;-84
2020/12/28 02:27:29;;;;;;;17.42;11.08;;;;;;;1.48;80.85;95566.06;1741814;82;21146;-83
2020/12/28 02:30:39;;;;;;;17.65;10.80;;;;;;;1.49;80.74;95559.92;1738660;82;21265;-84
2020/12/28 02:33:53;;;;;;;19.27;12.05;;;;;;;1.52;80.68;95554.48;1742793;82;21109;-84
2020/12/28 02:36:57;;;;;;;17.65;11.70;;;;;;;1.59;80.55;95553.53;1754269;80;21172;-82
2020/12/28 02:39:58;;;;;;;19.30;12.82;;;;;;;1.65;80.02;95534.06;1758724;81;21128;-84
2020/12/28 02:42:31;;;;;;;19.45;12.82;;;;;;;1.67;79.72;95541.28;1775269;81;21084;-84
2020/12/28 02:45:58;;;;;;;23.52;13.75;;;;;;;1.72;79.54;95522.25;1775846;80;21169;-85
2020/12/28 02:48:49;;;;;;;20.72;13.40;;;;;;;1.80;79.22;95522.49;1774035;81;21149;-84
2020/12/28 02:51:38;;;;;;;20.90;13.45;;;;;;;1.87;78.86;95515.86;1774016;81;21376;-85
2020/12/28 02:54:43;;;;;;;19.40;12.55;;;;;;;1.89;78.51;95502.28;1718554;80;21073;-84
2020/12/28 02:57:58;;;;;;;19.98;12.85;;;;;;;1.93;78.23;95507.59;1715192;83;21117;-85
2020/12/28 03:00:48;;;;;;;19.50;12.98;;;;;;;1.95;78.10;95499.67;1717088;83;21133;-84
2020/12/28 03:03:58;;;;;;;18.65;12.37;;;;;;;1.96;78.03;95498.27;1656755;86;21558;-83
2020/12/28 03:06:48;;;;;;;16.42;10.98;;;;;;;1.97;78.04;95494.72;1708690;83;21376;-85
2020/12/28 03:09:36;;;;;;;20.80;11.80;;;;;;;2.04;77.92;95502.36;1717557;83;21137;-83
2020/12/28 03:12:30;;;;;;;21.45;12.47;;;;;;;2.05;77.89;95488.91;1717884;80;21094;-83
2020/12/28 03:15:18;;;;;;;19.00;12.20;;;;;;;2.01;77.86;95496.58;1716772;83;21126;-82
2020/12/28 03:18:06;;;;;;;18.87;12.45;;;;;;;2.03;78.02;95500.72;1698963;80;21152;-82
2020/12/28 03:20:55;;;;;;;17.65;10.78;;;;;;;2.09;77.91;95495.03;1665942;82;21421;-84
2020/12/28 03:23:44;;;;;;;20.23;11.55;;;;;;;2.12;77.92;95484.86;1690351;85;21129;-81
2020/12/28 03:26:34;;;;;;;17.32;10.48;;;;;;;2.10;77.91;95481.57;1667798;83;21171;-82
2020/12/28 03:29:58;;;;;;;15.72;10.43;;;;;;;2.08;77.92;95488.20;1648724;84;21217;-85
2020/12/28 03:32:48;;;;;;;15.50;9.45;;;;;;;2.04;78.22;95484.19;1658987;86;21058;-85
2020/12/28 03:35:37;;;;;;;17.92;10.48;;;;;;;2.09;78.35;95495.03;1660044;81;21863;-81
2020/12/28 03:38:43;;;;;;;34.23;17.60;;;;;;;2.14;78.39;95480.38;1659211;83;21125;-84
2020/12/28 03:41:32;;;;;;;33.73;16.37;;;;;;;2.21;78.45;95493.69;1659586;86;21166;-84
2020/12/28 03:44:23;;;;;;;23.85;13.43;;;;;;;2.22;78.46;95470.66;1659373;86;21241;-83
2020/12/28 03:47:13;;;;;;;25.37;12.53;;;;;;;2.23;78.33;95471.00;1659929;86;21074;-83
2020/12/28 03:50:04;;;;;;;21.05;11.83;;;;;;;2.27;78.42;95473.71;1658357;83;21306;-83
2020/12/28 03:52:52;;;;;;;21.30;10.68;;;;;;;2.28;78.51;95472.76;1658346;86;21169;-84
2020/12/28 03:55:42;;;;;;;14.28;8.20;;;;;;;2.30;78.51;95458.68;1658442;86;21145;-84
2020/12/28 03:58:29;;;;;;;13.85;8.43;;;;;;;2.23;78.70;95454.12;1658471;86;21189;-85
2020/12/28 04:01:20;;;;;;;13.03;8.00;;;;;;;2.19;79.04;95447.52;1659419;85;21082;-82
2020/12/28 04:04:30;;;;;;;11.93;7.20;;;;;;;2.10;79.15;95451.70;1659144;86;21426;-83
2020/12/28 04:07:16;;;;;;;11.10;6.92;;;;;;;2.06;79.48;95437.32;1658052;86;21090;-82
2020/12/28 04:09:59;;;;;;;12.25;7.30;;;;;;;2.12;79.78;95431.62;1854548;77;28415;-85
2020/12/28 04:12:50;;;;;;;12.33;7.28;;;;;;;2.12;79.78;95447.20;1820305;78;21149;-84
2020/12/28 04:15:21;;;;;;;11.12;7.22;;;;;;;2.09;79.74;95439.69;1751819;82;21164;-82
2020/12/28 04:17:52;;;;;;;10.95;7.70;;;;;;;2.05;79.90;95440.39;1822036;78;21562;-83
2020/12/28 04:20:21;;;;;;;11.60;7.67;;;;;;;2.06;79.90;95450.30;1752524;82;21139;-84
2020/12/28 04:22:52;;;;;;;12.33;7.80;;;;;;;2.10;79.89;95451.70;1821983;78;21644;-82
2020/12/28 04:25:21;;;;;;;11.55;7.55;;;;;;;2.14;79.95;95456.53;1751543;82;21144;-84
2020/12/28 04:27:52;;;;;;;12.40;8.40;;;;;;;2.24;79.85;95466.16;1821721;78;21157;-86
2020/12/28 04:30:23;;;;;;;12.75;7.42;;;;;;;2.29;79.61;95466.13;1751497;82;21206;-84
2020/12/28 04:32:52;;;;;;;11.03;7.25;;;;;;;2.33;79.43;95453.73;1790490;78;21128;-85
2020/12/28 04:35:21;;;;;;;12.53;7.75;;;;;;;2.38;79.21;95452.88;1752049;82;21179;-86
2020/12/28 04:37:52;;;;;;;13.88;8.03;;;;;;;2.35;79.16;95455.71;1821705;78;21148;-84
2020/12/28 04:40:23;;;;;;;14.18;8.28;;;;;;;2.36;79.14;95458.17;1821562;78;21453;-85
2020/12/28 04:42:53;;;;;;;12.70;7.80;;;;;;;2.42;79.10;95456.84;1751451;82;21128;-84
2020/12/28 04:45:23;;;;;;;15.08;8.43;;;;;;;2.49;79.09;95439.83;1821483;78;21089;-84
2020/12/28 04:47:54;;;;;;;12.60;7.95;;;;;;;2.56;79.02;95446.62;1751409;82;21172;-85
2020/12/28 04:50:25;;;;;;;12.30;7.72;;;;;;;2.54;78.74;95438.94;1791493;78;21050;-84
2020/12/28 04:52:54;;;;;;;10.13;6.37;;;;;;;2.51;78.53;95450.08;1751262;82;21416;-84
2020/12/28 04:55:24;;;;;;;10.08;6.12;;;;;;;2.40;78.82;95443.17;1820878;78;21138;-83
2020/12/28 04:57:57;;;;;;;10.38;6.22;;;;;;;2.28;79.22;95441.59;1750902;82;21158;-84
2020/12/28 05:00:31;;;;;;;10.75;6.90;;;;;;;2.22;79.70;95436.42;1821148;78;21034;-82
2020/12/28 05:03:06;;;;;;;11.03;7.17;;;;;;;2.24;80.00;95445.38;1753549;82;21049;-83
2020/12/28 05:05:47;;;;;;;17.07;9.18;;;;;;;2.27;80.15;95449.03;1823280;78;21359;-84
2020/12/28 05:08:44;;;;;;;11.93;7.55;;;;;;;2.30;80.01;95434.00;1750748;80;21109;-83
2020/12/28 05:11:25;;;;;;;13.32;7.85;;;;;;;2.34;79.90;95438.48;1823979;78;21090;-84
2020/12/28 05:14:18;;;;;;;11.48;7.00;;;;;;;2.35;79.85;95442.25;1753587;82;21094;-83
2020/12/28 05:17:21;;;;;;;14.43;8.48;;;;;;;2.43;79.91;95432.98;1822661;78;21043;-84
2020/12/28 05:20:04;;;;;;;11.30;7.08;;;;;;;2.49;79.91;95425.98;1753231;82;21222;-84
2020/12/28 05:23:08;;;;;;;12.28;6.65;;;;;;;2.57;79.85;95433.50;1821604;78;21141;-84
2020/12/28 05:26:05;;;;;;;9.78;5.87;;;;;;;2.64;79.46;95429.43;1753128;82;21268;-84
2020/12/28 05:29:22;;;;;;;10.58;6.70;;;;;;;2.63;79.37;95417.88;1823169;78;21128;-84
2020/12/28 05:32:36;;;;;;;11.28;7.37;;;;;;;2.60;79.45;95433.23;1751057;82;21199;-85
2020/12/28 05:35:47;;;;;;;9.30;6.17;;;;;;;2.63;79.76;95419.99;1799513;78;21376;-82
2020/12/28 05:38:56;;;;;;;8.98;6.12;;;;;;;2.65;79.78;95403.78;1750114;81;21077;-84
2020/12/28 05:46:32;;;;;;;8.08;4.37;;;;;;;2.57;79.98;95420.98;1712322;79;21191;-84
2020/12/28 05:49:49;;;;;;;8.53;5.55;;;;;;;2.53;80.25;95431.28;1655671;85;21182;-83
2020/12/28 05:53:05;;;;;;;9.23;5.15;;;;;;;2.61;80.50;95419.78;1747947;76;21037;-83
2020/12/28 06:00:43;;;;;;;;;;;;;;;2.79;80.15;95433.01;1730812;79;22876;31
2020/12/28 06:08:23;;;;;;;10.03;6.60;;;;;;;2.80;79.89;95433.35;1725905;78;21530;-83
2020/12/28 06:23:31;;;;;;;12.25;9.05;;;;;;;2.88;79.89;95433.03;1709922;78;21417;-82
2020/12/28 06:26:01;;;;;;;11.50;8.85;;;;;;;2.93;79.51;95421.77;1749361;81;21167;-79
2020/12/28 06:28:42;;;;;;;10.28;7.15;;;;;;;2.90;79.33;95422.50;1741687;82;22100;-81
2020/12/28 06:31:14;;;;;;;13.48;8.53;;;;;;;2.84;79.59;95429.52;1721482;82;21134;-80
2020/12/28 06:33:49;;;;;;;12.47;8.15;;;;;;;2.84;79.70;95449.02;1750616;82;21057;-81
2020/12/28 06:36:21;;;;;;;10.00;6.85;;;;;;;2.87;79.76;95439.19;1765292;80;21147;-82
2020/12/28 06:38:59;;;;;;;10.82;7.42;;;;;;;2.95;79.70;95431.55;1721270;82;21088;-83
2020/12/28 06:42:15;;;;;;;17.52;11.12;;;;;;;3.03;79.62;95428.32;1691384;81;21409;-83
2020/12/28 06:45:24;;;;;;;;;;;;;;;3.00;79.25;95414.75;1756028;82;21063;-83
2020/12/28 06:48:27;;;;;;;29.35;19.62;;;;;;;2.92;79.65;95420.61;1752943;80;20277;-84
2020/12/28 06:51:39;;;;;;;27.62;18.20;;;;;;;2.91;79.81;95414.59;1729310;79;21545;-80
2020/12/28 06:55:14;;;;;;;61.30;41.55;;;;;;;2.95;80.01;95412.05;1732404;79;21608;-82
2020/12/28 06:58:21;;;;;;;26.82;17.55;;;;;;;3.01;79.61;95420.28;1694354;84;21074;-82
2020/12/28 07:01:55;;;;;;;23.90;17.67;;;;;;;3.01;79.49;95412.48;1700619;83;21153;-80
2020/12/28 07:04:48;;;;;;;19.92;15.45;;;;;;;3.04;79.42;95429.14;1685854;83;21078;-83
2020/12/28 07:08:09;;;;;;;15.78;11.15;;;;;;;3.05;79.07;95432.91;1609768;85;21230;-83
2020/12/28 07:15:04;;;;;;;31.02;24.80;;;;;;;3.17;79.28;95424.05;1721897;79;21469;-81
2020/12/28 07:41:51;;;;;;;;;;;;;;;;;;;;;
2020/12/28 08:34:21;;;;;;;23.02;16.27;;;;;;;3.74;77.20;95399.59;1782272;77;21227;31
2020/12/28 09:31:50;;;;;;;12.28;8.33;;;;;;;4.02;78.32;95334.11;1715612;82;21018;-82
2020/12/28 09:34:59;;;;;;;12.60;8.98;;;;;;;3.95;78.47;95308.29;1694251;82;21125;-83
2020/12/28 09:38:52;;;;;;;13.43;10.68;;;;;;;3.90;78.54;95307.40;1715209;83;21149;-82
2020/12/28 09:42:25;;;;;;;13.80;10.95;;;;;;;3.83;78.75;95301.11;1717369;83;21210;-83
2020/12/28 19:58:06;;;;;;;27.83;16.47;;;;;;;5.02;76.95;95125.63;1736679;78;21207;31
2020/12/28 20:05:39;;;;;;;45.40;22.95;;;;;;;5.11;76.08;95108.75;1625347;80;21317;-86
2020/12/28 20:09:15;;;;;;;25.85;16.37;;;;;;;5.08;76.00;95112.47;1737142;78;21164;-85
2020/12/28 20:12:30;;;;;;;25.08;16.25;;;;;;;5.06;75.83;95112.62;1786247;77;21184;-86
2020/12/28 20:27:01;;;;;;;34.03;19.37;;;;;;;4.98;75.37;95115.19;1693468;77;21511;-86
2020/12/28 20:29:58;;;;;;;32.00;20.15;;;;;;;4.93;75.57;95108.78;1662535;81;21212;-85
2020/12/28 20:43:07;;;;;;;33.42;21.30;;;;;;;4.69;77.49;95086.73;1677870;80;21255;31
2020/12/28 22:02:44;;;;;;;34.63;22.95;;;;;;;4.59;78.39;95078.65;1655526;81;21148;-84
2020/12/28 22:06:01;;;;;;;33.13;19.62;;;;;;;4.59;78.08;95079.47;1690607;81;22755;-83
2020/12/28 22:08:57;;;;;;;34.03;23.10;;;;;;;4.52;77.81;95063.61;1683006;81;21202;-85
2020/12/28 22:15:53;;;;;;;52.53;29.80;;;;;;;4.42;77.86;95067.25;1674944;81;21266;-85
2020/12/28 22:18:46;;;;;;;40.12;25.02;;;;;;;4.34;77.72;95060.66;1706531;83;21068;-85
2020/12/28 22:21:27;;;;;;;44.53;25.40;;;;;;;4.23;77.83;95069.02;1675552;81;21434;-85
2020/12/28 22:24:37;;;;;;;32.80;19.80;;;;;;;4.13;78.05;95078.67;1647910;85;21300;-85
2020/12/28 22:27:46;;;;;;;33.38;20.25;;;;;;;4.01;78.42;95066.81;1643527;87;21141;-83
2020/12/28 22:30:40;;;;;;;29.50;17.48;;;;;;;3.92;78.75;95072.92;1642689;87;21156;-86
2020/12/28 22:33:13;;;;;;;30.62;19.50;;;;;;;3.91;79.12;95063.44;1641152;87;21511;-86
2020/12/28 22:35:56;;;;;;;29.07;19.15;;;;;;;3.91;79.19;95064.29;1681150;84;21398;-85
2020/12/28 22:38:30;;;;;;;;;;;;;;;3.92;79.28;95061.20;1695328;85;21157;-85
2020/12/28 22:41:13;;;;;;;42.05;25.52;;;;;;;3.93;79.10;95043.30;1693083;85;20189;-84
2020/12/28 22:43:46;;;;;;;39.98;24.90;;;;;;;3.90;79.00;95040.98;1693006;85;21184;-86
2020/12/28 22:46:56;;;;;;;39.50;24.52;;;;;;;3.84;78.98;95033.75;1693072;85;21081;-85
2020/12/28 22:49:30;;;;;;;38.23;21.17;;;;;;;3.81;79.03;95028.84;1693154;79;21381;-84
2020/12/28 22:52:05;;;;;;;37.33;21.33;;;;;;;3.81;79.06;95015.83;1692765;85;21722;-86
2020/12/28 22:55:02;;;;;;;41.33;21.52;;;;;;;3.79;78.91;95015.95;1691363;84;21204;-83
2020/12/28 23:09:18;;;;;;;40.80;21.85;;;;;;;3.62;78.16;94997.24;1655813;86;21109;-84
2020/12/28 23:12:10;;;;;;;47.40;23.12;;;;;;;3.57;78.08;94992.95;1630352;88;21133;-85
2020/12/28 23:14:55;;;;;;;39.95;22.10;;;;;;;3.58;78.00;94998.48;1631304;86;21113;-87
2020/12/28 23:21:29;;;;;;;36.85;21.33;;;;;;;3.63;77.46;94997.09;1762569;79;21070;-85
2020/12/28 23:28:15;;;;;;;40.75;22.07;;;;;;;3.50;77.33;94982.30;1720889;79;22650;31
2020/12/28 23:31:27;;;;;;;36.70;20.52;;;;;;;3.50;77.34;94970.59;1657677;86;21210;-86
2020/12/28 23:34:05;;;;;;;34.05;19.57;;;;;;;3.48;77.37;94970.72;1657654;86;21099;-85
2020/12/28 23:40:55;;;;;;;30.17;19.70;;;;;;;3.39;77.66;94948.67;1729475;80;21052;-86
2020/12/28 23:43:46;;;;;;;29.80;17.60;;;;;;;3.37;77.79;94948.80;1739139;82;21099;-86
2020/12/28 23:50:22;;;;;;;27.58;17.95;;;;;;;3.30;78.02;94950.34;1780923;80;21189;-86
2020/12/28 23:53:24;;;;;;;28.32;16.85;;;;;;;3.32;78.86;94945.84;1782617;80;21196;-85
2020/12/28 23:56:06;;;;;;;26.33;16.40;;;;;;;3.40;79.22;94964.61;1783092;79;21145;-85
2020/12/28 23:58:35;;;;;;;23.85;15.05;;;;;;;3.42;79.06;94946.58;1782524;80;21189;-85
